Terminal Aerodrome Forecast
Issued by NWS Topeka, KS

Home | Current Version | Previous Version | Text Only | Print | Product List | Glossary On
Versions: 1 2 3 4 5 6 7 8 9 10 11 12 13 14 15 16
000
FTUS43 KTOP 221100
TAFTOP
TAF
KTOP 221120Z 2212/2312 17007KT P6SM VCTS SCT050CB BKN110
     FM221500 19009KT P6SM SCT150
     FM230100 15006KT P6SM SCT070 BKN200=

USA.gov is the U.S. government's official web portal to all federal, state and local government web resources and services.